| time (UTC) | temp F | wind direction | speed knots | gust knots | rain 1hr in | rain 24hr in | rain mn in | humidity % | barometer mb |
| 20260509224049 | 62 | 228 | 1.7 | 1.7 | 0.00 | 0.00 | 0.00 | 67 | 1005.3 |
| 20260509223546 | 63 | 236 | 4.3 | 5.2 | 0.00 | 0.00 | 0.00 | 66 | 1005.2 |
| 20260509223044 | 63 | 215 | 1.7 | 1.7 | 0.00 | 0.00 | 0.00 | 66 | 1005.0 |
| 20260509222539 | 63 | 180 | 2.6 | 4.3 | 0.00 | 0.00 | 0.00 | 64 | 1005.1 |
| 20260509222036 | 63 | 182 | 2.6 | 2.6 | 0.00 | 0.00 | 0.00 | 66 | 1005.4 |
| 20260509221531 | 62 | 237 | 2.6 | 4.3 | 0.00 | 0.00 | 0.00 | 66 | 1005.3 |
| 20260509221027 | 63 | 242 | 2.6 | 2.6 | 0.00 | 0.00 | 0.00 | 65 | 1005.3 |
| 20260509220524 | 63 | 235 | 1.7 | 2.6 | 0.00 | 0.00 | 0.00 | 64 | 1005.2 |
| 20260509220020 | 64 | 217 | 2.6 | 2.6 | 0.00 | 0.00 | 0.00 | 63 | 1005.5 |
| 20260509215515 | 64 | 126 | 4.3 | 8.7 | 0.00 | 0.00 | 0.00 | 62 | 1005.3 |
| 20260509215013 | 64 | 246 | 4.3 | 5.2 | 0.00 | 0.00 | 0.00 | 62 | 1005.1 |
| 20260509214510 | 63 | 220 | 0.9 | 0.9 | 0.00 | 0.00 | 0.00 | 64 | 1005.4 |
| 20260509214007 | 64 | 236 | 0.9 | 0.9 | 0.00 | 0.00 | 0.00 | 64 | 1005.4 |
| 20260509213503 | 64 | 206 | 2.6 | 2.6 | 0.00 | 0.00 | 0.00 | 64 | 1005.5 |
| 20260509213000 | 63 | 156 | 0.9 | 1.7 | 0.00 | 0.00 | 0.00 | 65 | 1005.3 |
| 20260509212457 | 62 | 241 | 0.9 | 0.9 | 0.00 | 0.00 | 0.00 | 66 | 1005.6 |
| 20260509211954 | 62 | 238 | 0.0 | 0.9 | 0.00 | 0.00 | 0.00 | 65 | 1005.5 |
| 20260509211449 | 63 | 253 | 1.7 | 1.7 | 0.00 | 0.00 | 0.00 | 64 | 1005.9 |
| 20260509210946 | 63 | 231 | 1.7 | 1.7 | 0.00 | 0.00 | 0.00 | 64 | 1005.8 |
| 20260509210443 | 62 | 149 | 0.9 | 0.9 | 0.00 | 0.00 | 0.00 | 67 | 1005.8 |
| 20260509205938 | 62 | 220 | 2.6 | 2.6 | 0.00 | 0.00 | 0.00 | 66 | 1005.7 |
| 20260509205433 | 62 | 301 | 1.7 | 1.7 | 0.00 | 0.00 | 0.00 | 64 | 1005.7 |
| 20260509204929 | 62 | 305 | 4.3 | 6.1 | 0.00 | 0.00 | 0.00 | 65 | 1005.7 |
| 20260509204425 | 63 | 236 | 2.6 | 4.3 | 0.00 | 0.00 | 0.00 | 63 | 1006.1 |
| 20260509203923 | 63 | 253 | 1.7 | 1.7 | 0.00 | 0.00 | 0.00 | 62 | 1005.8 |
| 20260509203418 | 62 | 220 | 2.6 | 2.6 | 0.00 | 0.00 | 0.00 | 65 | 1005.8 |
| 20260509202916 | 62 | 185 | 1.7 | 2.6 | 0.00 | 0.00 | 0.00 | 65 | 1005.9 |
| 20260509202412 | 63 | 190 | 2.6 | 4.3 | 0.00 | 0.00 | 0.00 | 62 | 1006.1 |
| 20260509201907 | 62 | 194 | 2.6 | 4.3 | 0.00 | 0.00 | 0.00 | 63 | 1006.0 |
| 20260509201403 | 62 | 238 | 0.9 | 1.7 | 0.00 | 0.00 | 0.00 | 65 | 1006.2 |
| 20260509200900 | 61 | 176 | 1.7 | 1.7 | 0.00 | 0.00 | 0.00 | 66 | 1006.0 |
| 20260509200359 | 62 | 201 | 2.6 | 2.6 | 0.00 | 0.00 | 0.00 | 66 | 1006.2 |
| 20260509195857 | 62 | 237 | 2.6 | 4.3 | 0.00 | 0.00 | 0.00 | 64 | 1006.4 |
| 20260509195357 | 62 | 181 | 3.5 | 4.3 | 0.00 | 0.00 | 0.00 | 66 | 1006.5 |
| 20260509194857 | 62 | 231 | 0.9 | 1.7 | 0.00 | 0.00 | 0.00 | 64 | 1006.4 |
| 20260509194353 | 63 | 209 | 3.5 | 4.3 | 0.00 | 0.00 | 0.00 | 63 | 1006.4 |
| 20260509193850 | 64 | 203 | 4.3 | 6.1 | 0.00 | 0.00 | 0.00 | 63 | 1006.5 |
| 20260509193350 | 63 | 119 | 4.3 | 6.1 | 0.00 | 0.00 | 0.00 | 63 | 1006.6 |
| 20260509192846 | 63 | 183 | 2.6 | 5.2 | 0.00 | 0.00 | 0.00 | 64 | 1006.8 |
| 20260509192342 | 63 | 84 | 4.3 | 6.1 | 0.00 | 0.00 | 0.00 | 63 | 1006.6 |
| 20260509191838 | 64 | 218 | 5.2 | 8.7 | 0.00 | 0.00 | 0.00 | 62 | 1006.7 |
| 20260509191333 | 64 | 210 | 0.0 | 0.9 | 0.00 | 0.00 | 0.00 | 62 | 1006.7 |
| 20260509190830 | 64 | 171 | 4.3 | 5.2 | 0.00 | 0.00 | 0.00 | 61 | 1006.9 |
| 20260509190327 | 64 | 260 | 2.6 | 2.6 | 0.00 | 0.00 | 0.00 | 63 | 1006.7 |
| 20260509185824 | 65 | 239 | 4.3 | 6.1 | 0.00 | 0.00 | 0.00 | 59 | 1007.1 |
| 20260509185320 | 64 | 214 | 4.3 | 6.1 | 0.00 | 0.00 | 0.00 | 60 | 1006.8 |
| 20260509184818 | 63 | 148 | 7.0 | 7.8 | 0.00 | 0.00 | 0.00 | 60 | 1006.9 |
| 20260509184315 | 63 | 209 | 4.3 | 7.0 | 0.00 | 0.00 | 0.00 | 59 | 1006.8 |
| 20260509183812 | 65 | 223 | 4.3 | 5.2 | 0.00 | 0.00 | 0.00 | 55 | 1006.9 |
| 20260509183307 | 66 | 236 | 1.7 | 2.6 | 0.00 | 0.00 | 0.00 | 55 | 1006.6 |
| 20260509182803 | 65 | 204 | 4.3 | 6.1 | 0.00 | 0.00 | 0.00 | 57 | 1007.2 |
| 20260509182300 | 66 | 296 | 4.3 | 5.2 | 0.00 | 0.00 | 0.00 | 55 | 1006.9 |
| 20260509181757 | 66 | 311 | 4.3 | 6.1 | 0.00 | 0.00 | 0.00 | 54 | 1006.9 |
| 20260509181255 | 65 | 245 | 3.5 | 4.3 | 0.00 | 0.00 | 0.00 | 54 | 1006.8 |
| 20260509180752 | 66 | 237 | 1.7 | 2.6 | 0.00 | 0.00 | 0.00 | 54 | 1006.8 |
| 20260509180248 | 67 | 205 | 3.5 | 5.2 | 0.00 | 0.00 | 0.00 | 51 | 1006.7 |
| 20260509175744 | 66 | 228 | 4.3 | 4.3 | 0.00 | 0.00 | 0.00 | 52 | 1007.1 |
| 20260509175241 | 66 | 206 | 0.9 | 1.7 | 0.00 | 0.00 | 0.00 | 52 | 1006.9 |
| 20260509174737 | 63 | 260 | 1.7 | 1.7 | 0.00 | 0.00 | 0.00 | 56 | 1006.8 |
| 20260509174232 | 64 | 228 | 2.6 | 4.3 | 0.00 | 0.00 | 0.00 | 52 | 1007.3 |
| 20260509173729 | 65 | 225 | 3.5 | 5.2 | 0.00 | 0.00 | 0.00 | 53 | 1006.9 |
| 20260509173225 | 65 | 254 | 0.9 | 1.7 | 0.00 | 0.00 | 0.00 | 51 | 1007.4 |
| 20260509172721 | 64 | 214 | 2.6 | 2.6 | 0.00 | 0.00 | 0.00 | 52 | 1007.4 |
| 20260509172217 | 64 | 208 | 2.6 | 4.3 | 0.00 | 0.00 | 0.00 | 53 | 1007.7 |
| 20260509171713 | 63 | 232 | 0.9 | 0.9 | 0.00 | 0.00 | 0.00 | 54 | 1007.6 |
| 20260509171209 | 64 | 254 | 1.7 | 2.6 | 0.00 | 0.00 | 0.00 | 55 | 1007.5 |
| 20260509170706 | 65 | 248 | 0.9 | 0.9 | 0.00 | 0.00 | 0.00 | 52 | 1007.6 |
| 20260509170202 | 64 | 243 | 2.6 | 2.6 | 0.00 | 0.00 | 0.00 | 54 | 1007.9 |
| 20260509165701 | 63 | 232 | 1.7 | 1.7 | 0.00 | 0.00 | 0.00 | 56 | 1007.7 |
| 20260509165156 | 62 | 269 | 3.5 | 4.3 | 0.00 | 0.00 | 0.00 | 59 | 1007.7 |
| 20260509164652 | 61 | 271 | 0.0 | 0.9 | 0.00 | 0.00 | 0.00 | 60 | 1007.9 |
| 20260509164148 | 61 | 159 | 1.7 | 1.7 | 0.00 | 0.00 | 0.00 | 60 | 1008.0 |
| 20260509163646 | 62 | 268 | 3.5 | 4.3 | 0.00 | 0.00 | 0.00 | 60 | 1008.1 |
| 20260509163142 | 63 | 278 | 0.9 | 0.9 | 0.00 | 0.00 | 0.00 | 60 | 1008.0 |
| 20260509162639 | 62 | 239 | 3.5 | 5.2 | 0.00 | 0.00 | 0.00 | 59 | 1008.1 |
| 20260509162135 | 61 | 268 | 0.9 | 1.7 | 0.00 | 0.00 | 0.00 | 61 | 1008.2 |
| 20260509161631 | 63 | 257 | 1.7 | 1.7 | 0.00 | 0.00 | 0.00 | 58 | 1008.6 |
| 20260509161126 | 62 | 266 | 1.7 | 1.7 | 0.00 | 0.00 | 0.00 | 61 | 1008.3 |
| 20260509160622 | 61 | 229 | 0.0 | 0.0 | 0.00 | 0.00 | 0.00 | 60 | 1008.7 |
| 20260509160118 | 62 | 194 | 2.6 | 4.3 | 0.00 | 0.00 | 0.00 | 59 | 1008.5 |
| 20260509155614 | 61 | 226 | 2.6 | 4.3 | 0.00 | 0.00 | 0.00 | 61 | 1008.8 |
| 20260509155111 | 61 | 122 | 1.7 | 4.3 | 0.00 | 0.00 | 0.00 | 60 | 1009.0 |
| 20260509154606 | 63 | 158 | 2.6 | 2.6 | 0.00 | 0.00 | 0.00 | 59 | 1008.9 |
| 20260509154104 | 62 | 293 | 1.7 | 2.6 | 0.00 | 0.00 | 0.00 | 58 | 1008.8 |
| 20260509153601 | 61 | 193 | 1.7 | 2.6 | 0.00 | 0.00 | 0.00 | 58 | 1009.0 |
| 20260509153058 | 61 | 231 | 1.7 | 1.7 | 0.00 | 0.00 | 0.00 | 59 | 1009.0 |
| 20260509152554 | 61 | 231 | 0.9 | 1.7 | 0.00 | 0.00 | 0.00 | 59 | 1009.2 |
| 20260509152051 | 60 | 220 | 2.6 | 2.6 | 0.00 | 0.00 | 0.00 | 59 | 1009.1 |
| 20260509151547 | 60 | 226 | 0.9 | 0.9 | 0.00 | 0.00 | 0.00 | 59 | 1009.0 |
| 20260509151045 | 61 | 245 | 0.9 | 0.9 | 0.00 | 0.00 | 0.00 | 57 | 1009.1 |
| 20260509150542 | 62 | 244 | 2.6 | 2.6 | 0.00 | 0.00 | 0.00 | 59 | 1009.3 |
| 20260509150041 | 60 | 235 | 0.9 | 0.9 | 0.00 | 0.00 | 0.00 | 60 | 1009.3 |
| 20260509145536 | 60 | 265 | 2.6 | 2.6 | 0.00 | 0.00 | 0.00 | 59 | 1009.3 |
| 20260509145031 | 60 | 212 | 1.7 | 2.6 | 0.00 | 0.00 | 0.00 | 58 | 1009.3 |
| 20260509144528 | 60 | 263 | 1.7 | 2.6 | 0.00 | 0.00 | 0.00 | 60 | 1009.5 |
| 20260509144026 | 60 | 222 | 1.7 | 1.7 | 0.00 | 0.00 | 0.00 | 59 | 1009.6 |
| 20260509143523 | 60 | 173 | 2.6 | 2.6 | 0.00 | 0.00 | 0.00 | 58 | 1009.5 |
| 20260509143021 | 61 | 196 | 1.7 | 1.7 | 0.00 | 0.00 | 0.00 | 57 | 1009.5 |
| 20260509142516 | 61 | 196 | 0.9 | 1.7 | 0.00 | 0.00 | 0.00 | 58 | 1009.5 |
| 20260509142011 | 62 | 249 | 0.9 | 0.9 | 0.00 | 0.00 | 0.00 | 56 | 1009.3 |
| 20260509141508 | 60 | 221 | 2.6 | 2.6 | 0.00 | 0.00 | 0.00 | 58 | 1009.5 |
| 20260509141005 | 60 | 235 | 1.7 | 1.7 | 0.00 | 0.00 | 0.00 | 58 | 1009.7 |
| 20260509140501 | 59 | 224 | 0.9 | 0.9 | 0.00 | 0.00 | 0.00 | 59 | 1009.5 |
| 20260509140000 | 59 | 236 | 0.9 | 1.7 | 0.00 | 0.00 | 0.00 | 61 | 1009.7 |
| 20260509135457 | 59 | 214 | 0.9 | 0.9 | 0.00 | 0.00 | 0.00 | 61 | 1009.8 |
| 20260509134954 | 59 | 239 | 1.7 | 1.7 | 0.00 | 0.00 | 0.00 | 59 | 1009.7 |
| 20260509134451 | 59 | 246 | 0.9 | 0.9 | 0.00 | 0.00 | 0.00 | 60 | 1009.8 |
| 20260509133949 | 58 | 223 | 2.6 | 4.3 | 0.00 | 0.00 | 0.00 | 60 | 1009.8 |
| 20260509133445 | 59 | 229 | 2.6 | 2.6 | 0.00 | 0.00 | 0.00 | 59 | 1009.9 |
| 20260509132943 | 59 | 163 | 6.1 | 7.8 | 0.00 | 0.00 | 0.00 | 58 | 1009.9 |
| 20260509132441 | 58 | 249 | 1.7 | 1.7 | 0.00 | 0.00 | 0.00 | 58 | 1010.1 |
| 20260509131937 | 58 | 207 | 0.9 | 1.7 | 0.00 | 0.00 | 0.00 | 58 | 1010.2 |
| 20260509131435 | 58 | 231 | 3.5 | 5.2 | 0.00 | 0.00 | 0.00 | 57 | 1010.0 |
| 20260509130932 | 58 | 157 | 4.3 | 7.8 | 0.00 | 0.00 | 0.00 | 57 | 1009.8 |
| 20260509130427 | 58 | 132 | 4.3 | 6.1 | 0.00 | 0.00 | 0.00 | 54 | 1010.0 |
| 20260509125924 | 58 | 222 | 0.9 | 0.9 | 0.00 | 0.00 | 0.00 | 54 | 1009.9 |
| 20260509125421 | 57 | 257 | 0.9 | 0.9 | 0.00 | 0.00 | 0.00 | 54 | 1009.8 |
| 20260509124917 | 57 | 215 | 2.6 | 4.3 | 0.00 | 0.00 | 0.00 | 53 | 1009.7 |
| 20260509124414 | 57 | 201 | 2.6 | 4.3 | 0.00 | 0.00 | 0.00 | 51 | 1009.9 |
| 20260509123912 | 57 | 148 | 3.5 | 4.3 | 0.00 | 0.00 | 0.00 | 51 | 1010.0 |
| 20260509123409 | 56 | 140 | 3.5 | 5.2 | 0.00 | 0.00 | 0.00 | 49 | 1010.2 |
| 20260509122904 | 56 | 207 | 0.9 | 1.7 | 0.00 | 0.00 | 0.00 | 48 | 1010.4 |
| 20260509122401 | 56 | 239 | 2.6 | 5.2 | 0.00 | 0.00 | 0.00 | 47 | 1010.2 |
| 20260509121858 | 55 | 230 | 3.5 | 5.2 | 0.00 | 0.00 | 0.00 | 46 | 1010.2 |
| 20260509121355 | 55 | 267 | 1.7 | 2.6 | 0.00 | 0.00 | 0.00 | 46 | 1010.4 |
| 20260509120854 | 55 | 238 | 1.7 | 4.3 | 0.00 | 0.00 | 0.00 | 48 | 1010.6 |
| 20260509120351 | 54 | 190 | 2.6 | 4.3 | 0.00 | 0.00 | 0.00 | 48 | 1010.4 |
| 20260509115849 | 53 | 297 | 0.9 | 1.7 | 0.00 | 0.00 | 0.00 | 48 | 1010.3 |
| 20260509115346 | 53 | 222 | 1.7 | 1.7 | 0.00 | 0.00 | 0.00 | 48 | 1010.3 |
| 20260509114843 | 53 | 191 | 2.6 | 2.6 | 0.00 | 0.00 | 0.00 | 49 | 1010.4 |
| 20260509114342 | 53 | 92 | 2.6 | 4.3 | 0.00 | 0.00 | 0.00 | 49 | 1010.4 |
| 20260509113841 | 53 | 104 | 1.7 | 2.6 | 0.00 | 0.00 | 0.00 | 50 | 1010.5 |
| 20260509113337 | 53 | 162 | 5.2 | 7.0 | 0.00 | 0.00 | 0.00 | 50 | 1010.3 |
| 20260509112834 | 52 | 193 | 2.6 | 4.3 | 0.00 | 0.00 | 0.00 | 51 | 1010.4 |
| 20260509112331 | 52 | 297 | 1.7 | 2.6 | 0.00 | 0.00 | 0.00 | 53 | 1010.4 |
| 20260509111828 | 51 | 241 | 4.3 | 5.2 | 0.00 | 0.00 | 0.00 | 53 | 1010.2 |
| 20260509111325 | 51 | 212 | 1.7 | 1.7 | 0.00 | 0.00 | 0.00 | 54 | 1010.1 |
| 20260509110823 | 50 | 237 | 0.9 | 1.7 | 0.00 | 0.00 | 0.00 | 54 | 1010.5 |
| 20260509110319 | 49 | 198 | 1.7 | 2.6 | 0.00 | 0.00 | 0.00 | 56 | 1010.5 |
| 20260509105817 | 49 | 221 | 1.7 | 1.7 | 0.00 | 0.00 | 0.00 | 56 | 1010.4 |
| 20260509105315 | 48 | 173 | 0.9 | 1.7 | 0.00 | 0.00 | 0.00 | 56 | 1010.5 |
| 20260509104812 | 48 | 239 | 0.0 | 0.9 | 0.00 | 0.00 | 0.00 | 57 | 1010.4 |
| 20260509104308 | 47 | 161 | 2.6 | 4.3 | 0.00 | 0.00 | 0.00 | 57 | 1010.4 |
| 20260509103806 | 47 | 230 | 0.9 | 0.9 | 0.00 | 0.00 | 0.00 | 58 | 1010.5 |
| 20260509103303 | 46 | 186 | 1.7 | 2.6 | 0.00 | 0.00 | 0.00 | 59 | 1010.2 |
| 20260509102802 | 46 | 218 | 0.9 | 1.7 | 0.00 | 0.00 | 0.00 | 60 | 1010.1 |
| 20260509102258 | 46 | 225 | 0.9 | 1.7 | 0.00 | 0.00 | 0.00 | 60 | 1010.2 |
| 20260509101754 | 46 | 208 | 1.7 | 1.7 | 0.00 | 0.00 | 0.00 | 60 | 1010.2 |
| 20260509101251 | 44 | 212 | 1.7 | 1.7 | 0.00 | 0.00 | 0.00 | 63 | 1010.2 |
| 20260509100748 | 44 | 225 | 1.7 | 1.7 | 0.00 | 0.00 | 0.00 | 63 | 1010.4 |
| 20260509100246 | 44 | 236 | 0.9 | 0.9 | 0.00 | 0.00 | 0.00 | 64 | 1010.4 |
| 20260509095742 | 44 | 239 | 0.9 | 1.7 | 0.00 | 0.00 | 0.00 | 64 | 1010.4 |
| 20260509095239 | 43 | 249 | 0.9 | 1.7 | 0.00 | 0.00 | 0.00 | 66 | 1010.5 |
| 20260509094737 | 42 | 214 | 0.9 | 0.9 | 0.00 | 0.00 | 0.00 | 68 | 1010.3 |
| 20260509094233 | 41 | 142 | 0.9 | 1.7 | 0.00 | 0.00 | 0.00 | 69 | 1010.3 |
| 20260509093731 | 41 | 267 | 0.0 | 0.0 | 0.00 | 0.00 | 0.00 | 68 | 1010.4 |
| 20260509093228 | 42 | 269 | 0.0 | 0.0 | 0.00 | 0.00 | 0.00 | 67 | 1010.4 |
| 20260509092727 | 42 | 238 | 0.9 | 0.9 | 0.00 | 0.00 | 0.00 | 67 | 1010.5 |
| 20260509092224 | 42 | 219 | 0.9 | 1.7 | 0.00 | 0.00 | 0.00 | 68 | 1010.4 |
| 20260509091722 | 41 | 265 | 0.0 | 0.0 | 0.00 | 0.00 | 0.00 | 70 | 1010.5 |
| 20260509091218 | 41 | 271 | 0.0 | 0.0 | 0.00 | 0.00 | 0.00 | 71 | 1010.5 |
| 20260509090716 | 40 | 265 | 0.0 | 0.0 | 0.00 | 0.00 | 0.00 | 71 | 1010.6 |
| 20260509090213 | 40 | 269 | 0.0 | 0.0 | 0.00 | 0.00 | 0.00 | 70 | 1010.5 |
| 20260509085711 | 41 | 264 | 0.0 | 0.0 | 0.00 | 0.00 | 0.00 | 69 | 1010.7 |
| 20260509085207 | 40 | 277 | 0.0 | 0.0 | 0.00 | 0.00 | 0.00 | 70 | 1010.8 |
| 20260509084704 | 40 | 273 | 0.0 | 0.0 | 0.00 | 0.00 | 0.00 | 71 | 1010.9 |
| 20260509084201 | 41 | 265 | 0.0 | 0.0 | 0.00 | 0.00 | 0.00 | 70 | 1010.8 |
| 20260509083659 | 40 | 273 | 0.0 | 0.0 | 0.00 | 0.00 | 0.00 | 70 | 1010.9 |
| 20260509083154 | 40 | 272 | 0.0 | 0.0 | 0.00 | 0.00 | 0.00 | 70 | 1010.7 |
| 20260509082652 | 40 | 270 | 0.0 | 0.0 | 0.00 | 0.00 | 0.00 | 69 | 1010.8 |
| 20260509082148 | 41 | 274 | 0.0 | 0.0 | 0.00 | 0.00 | 0.00 | 69 | 1011.0 |
| 20260509081645 | 41 | 272 | 0.0 | 0.0 | 0.00 | 0.00 | 0.00 | 68 | 1010.9 |
| 20260509081143 | 41 | 262 | 0.0 | 0.0 | 0.00 | 0.00 | 0.00 | 68 | 1010.9 |
| 20260509080641 | 41 | 258 | 0.0 | 0.0 | 0.00 | 0.00 | 0.00 | 68 | 1010.9 |
| 20260509080138 | 41 | 258 | 0.0 | 0.0 | 0.00 | 0.00 | 0.00 | 67 | 1011.0 |
| 20260509075636 | 41 | 266 | 0.0 | 0.0 | 0.00 | 0.00 | 0.00 | 66 | 1011.0 |
| 20260509075134 | 42 | 270 | 0.0 | 0.0 | 0.00 | 0.00 | 0.00 | 65 | 1011.0 |
| 20260509074630 | 42 | 244 | 0.0 | 0.9 | 0.00 | 0.00 | 0.00 | 65 | 1010.9 |
| 20260509074126 | 42 | 267 | 0.0 | 0.0 | 0.00 | 0.00 | 0.00 | 65 | 1011.1 |
| 20260509073623 | 43 | 260 | 0.0 | 0.0 | 0.00 | 0.00 | 0.00 | 64 | 1011.2 |
| 20260509073120 | 44 | 245 | 0.0 | 0.0 | 0.00 | 0.00 | 0.00 | 63 | 1011.1 |
| 20260509072617 | 44 | 253 | 0.0 | 0.9 | 0.00 | 0.00 | 0.00 | 61 | 1011.0 |
| 20260509072114 | 44 | 242 | 0.9 | 0.9 | 0.00 | 0.00 | 0.00 | 61 | 1011.1 |
| 20260509071610 | 44 | 247 | 0.0 | 0.0 | 0.00 | 0.00 | 0.00 | 61 | 1011.1 |
| 20260509071108 | 44 | 246 | 0.0 | 0.9 | 0.00 | 0.00 | 0.00 | 59 | 1011.2 |
| 20260509070605 | 45 | 256 | 0.0 | 0.0 | 0.00 | 0.00 | 0.00 | 59 | 1011.1 |
| 20260509070101 | 44 | 240 | 0.0 | 0.9 | 0.00 | 0.00 | 0.00 | 59 | 1011.0 |
| 20260509065556 | 45 | 245 | 0.9 | 0.9 | 0.00 | 0.00 | 0.00 | 59 | 1010.9 |
| 20260509065052 | 44 | 246 | 0.0 | 0.0 | 0.00 | 0.00 | 0.00 | 59 | 1011.1 |
| 20260509064550 | 44 | 229 | 0.0 | 0.9 | 0.00 | 0.00 | 0.00 | 60 | 1011.1 |
| 20260509064048 | 44 | 201 | 1.7 | 1.7 | 0.00 | 0.00 | 0.00 | 60 | 1011.2 |
| 20260509063544 | 45 | 267 | 0.0 | 0.0 | 0.00 | 0.00 | 0.00 | 60 | 1011.2 |
| 20260509063041 | 44 | 234 | 1.7 | 1.7 | 0.00 | 0.00 | 0.00 | 60 | 1011.4 |
| 20260509062538 | 44 | 267 | 0.0 | 0.9 | 0.00 | 0.00 | 0.00 | 60 | 1011.3 |
| 20260509062036 | 44 | 258 | 0.0 | 0.9 | 0.00 | 0.00 | 0.00 | 60 | 1011.0 |
| 20260509061532 | 44 | 221 | 0.9 | 0.9 | 0.00 | 0.00 | 0.00 | 60 | 1011.3 |
| 20260509061030 | 44 | 221 | 0.9 | 0.9 | 0.00 | 0.00 | 0.00 | 61 | 1011.3 |
| 20260509060527 | 43 | 218 | 1.7 | 1.7 | 0.00 | 0.00 | 0.00 | 63 | 1011.5 |
| 20260509060023 | 42 | 253 | 0.0 | 0.0 | 0.00 | 0.00 | 0.00 | 66 | 1011.3 |
| 20260509055518 | 42 | 262 | 0.0 | 0.0 | 0.00 | 0.00 | 0.00 | 65 | 1011.4 |
| 20260509055015 | 43 | 239 | 0.0 | 0.9 | 0.00 | 0.00 | 0.00 | 64 | 1011.5 |
| 20260509054511 | 42 | 232 | 0.0 | 0.0 | 0.00 | 0.00 | 0.00 | 64 | 1011.8 |
| 20260509054010 | 42 | 215 | 0.9 | 0.9 | 0.00 | 0.00 | 0.00 | 66 | 1011.8 |
| 20260509053508 | 41 | 246 | 0.0 | 0.0 | 0.00 | 0.00 | 0.00 | 68 | 1011.9 |
| 20260509053004 | 41 | 258 | 0.0 | 0.0 | 0.00 | 0.00 | 0.00 | 69 | 1011.7 |
| 20260509052502 | 40 | 248 | 0.0 | 0.0 | 0.00 | 0.00 | 0.00 | 71 | 1011.9 |
| 20260509052000 | 39 | 254 | 0.0 | 0.0 | 0.00 | 0.00 | 0.00 | 71 | 1011.9 |
| 20260509051457 | 39 | 265 | 0.0 | 0.0 | 0.00 | 0.00 | 0.00 | 72 | 1011.6 |
| 20260509050954 | 39 | 268 | 0.0 | 0.0 | 0.00 | 0.00 | 0.00 | 73 | 1011.8 |
| 20260509050451 | 39 | 263 | 0.0 | 0.0 | 0.00 | 0.00 | 0.00 | 73 | 1011.8 |
| 20260509045947 | 38 | 244 | 0.0 | 0.0 | 0.00 | 0.00 | 0.00 | 74 | 1011.9 |
| 20260509045445 | 37 | 255 | 0.0 | 0.0 | 0.00 | 0.00 | 0.00 | 75 | 1012.0 |
| 20260509044941 | 37 | 247 | 0.0 | 0.0 | 0.00 | 0.00 | 0.00 | 77 | 1012.1 |
| 20260509044440 | 38 | 254 | 0.0 | 0.0 | 0.00 | 0.00 | 0.00 | 74 | 1012.2 |
| 20260509043937 | 38 | 262 | 0.0 | 0.0 | 0.00 | 0.00 | 0.00 | 70 | 1012.0 |
| 20260509043432 | 38 | 262 | 0.0 | 0.0 | 0.00 | 0.00 | 0.00 | 69 | 1012.2 |
| 20260509042928 | 39 | 265 | 0.0 | 0.0 | 0.00 | 0.00 | 0.00 | 68 | 1012.2 |
| 20260509042425 | 40 | 249 | 0.0 | 0.0 | 0.00 | 0.00 | 0.00 | 67 | 1012.2 |
| 20260509041921 | 39 | 262 | 0.0 | 0.0 | 0.00 | 0.00 | 0.00 | 66 | 1012.3 |
| 20260509041418 | 40 | 254 | 0.0 | 0.0 | 0.00 | 0.00 | 0.00 | 65 | 1012.1 |
| 20260509040916 | 40 | 254 | 0.0 | 0.0 | 0.00 | 0.00 | 0.00 | 65 | 1012.1 |
| 20260509040414 | 40 | 253 | 0.0 | 0.0 | 0.00 | 0.00 | 0.00 | 66 | 1012.0 |
| 20260509035910 | 40 | 247 | 0.0 | 0.0 | 0.00 | 0.00 | 0.00 | 67 | 1011.9 |
| 20260509035408 | 39 | 254 | 0.0 | 0.0 | 0.00 | 0.00 | 0.00 | 70 | 1011.9 |
| 20260509034904 | 39 | 262 | 0.0 | 0.0 | 0.00 | 0.00 | 0.00 | 70 | 1012.1 |
| 20260509034402 | 39 | 264 | 0.0 | 0.0 | 0.00 | 0.00 | 0.00 | 72 | 1011.8 |
| 20260509033859 | 38 | 256 | 0.0 | 0.0 | 0.00 | 0.00 | 0.00 | 75 | 1012.0 |
| 20260509033356 | 38 | 262 | 0.0 | 0.0 | 0.00 | 0.00 | 0.00 | 75 | 1011.8 |
| 20260509032852 | 37 | 258 | 0.0 | 0.0 | 0.00 | 0.00 | 0.00 | 77 | 1011.9 |
| 20260509032349 | 37 | 261 | 0.0 | 0.0 | 0.00 | 0.00 | 0.00 | 78 | 1011.9 |
| 20260509031848 | 37 | 173 | 0.0 | 0.0 | 0.00 | 0.00 | 0.00 | 80 | 1011.9 |
| 20260509031344 | 38 | 256 | 0.0 | 0.0 | 0.00 | 0.00 | 0.00 | 81 | 1011.9 |
| 20260509030842 | 38 | 251 | 0.0 | 0.0 | 0.00 | 0.00 | 0.00 | 81 | 1012.2 |
| 20260509030340 | 37 | 246 | 0.0 | 0.0 | 0.00 | 0.00 | 0.00 | 84 | 1012.2 |
| 20260509025837 | 37 | 265 | 0.0 | 0.0 | 0.00 | 0.00 | 0.00 | 85 | 1012.0 |
| 20260509025332 | 37 | 261 | 0.0 | 0.0 | 0.00 | 0.00 | 0.00 | 85 | 1012.4 |
| 20260509024827 | 37 | 234 | 0.9 | 0.9 | 0.00 | 0.00 | 0.00 | 85 | 1012.4 |
| 20260509024324 | 37 | 253 | 0.0 | 0.0 | 0.00 | 0.00 | 0.00 | 85 | 1012.5 |
| 20260509023821 | 37 | 259 | 0.0 | 0.0 | 0.00 | 0.00 | 0.00 | 84 | 1012.4 |
| 20260509023319 | 37 | 262 | 0.0 | 0.0 | 0.00 | 0.00 | 0.00 | 84 | 1012.3 |
| 20260509022815 | 37 | 254 | 0.0 | 0.0 | 0.00 | 0.00 | 0.00 | 83 | 1012.7 |
| 20260509022313 | 38 | 255 | 0.0 | 0.0 | 0.00 | 0.00 | 0.00 | 83 | 1012.3 |
| 20260509021809 | 38 | 254 | 0.0 | 0.0 | 0.00 | 0.00 | 0.00 | 82 | 1012.4 |
| 20260509021306 | 38 | 250 | 0.0 | 0.0 | 0.00 | 0.00 | 0.00 | 81 | 1012.6 |
| 20260509020804 | 38 | 263 | 0.0 | 0.0 | 0.00 | 0.00 | 0.00 | 80 | 1012.5 |
| 20260509020301 | 38 | 262 | 0.0 | 0.0 | 0.00 | 0.00 | 0.00 | 80 | 1012.3 |
| 20260509015759 | 39 | 258 | 0.0 | 0.0 | 0.00 | 0.00 | 0.00 | 79 | 1012.3 |
| 20260509015257 | 39 | 302 | 0.0 | 0.0 | 0.00 | 0.00 | 0.00 | 78 | 1012.3 |
| 20260509014753 | 39 | 302 | 0.0 | 0.0 | 0.00 | 0.00 | 0.00 | 76 | 1012.3 |
| 20260509014250 | 39 | 260 | 0.0 | 0.0 | 0.00 | 0.00 | 0.00 | 74 | 1012.4 |
| 20260509013747 | 39 | 258 | 0.0 | 0.0 | 0.00 | 0.00 | 0.00 | 74 | 1012.1 |
| 20260509013242 | 40 | 259 | 0.0 | 0.0 | 0.00 | 0.00 | 0.00 | 74 | 1012.0 |
| 20260509012739 | 40 | 251 | 0.0 | 0.0 | 0.00 | 0.00 | 0.00 | 73 | 1012.2 |
| 20260509012236 | 41 | 261 | 0.0 | 0.0 | 0.00 | 0.00 | 0.00 | 72 | 1012.0 |
| 20260509011733 | 41 | 264 | 0.0 | 0.0 | 0.00 | 0.00 | 0.00 | 70 | 1011.9 |
| 20260509011231 | 41 | 259 | 0.0 | 0.0 | 0.00 | 0.00 | 0.00 | 69 | 1011.9 |
| 20260509010729 | 41 | 261 | 0.0 | 0.0 | 0.00 | 0.00 | 0.00 | 68 | 1012.1 |
| 20260509010225 | 42 | 261 | 0.0 | 0.0 | 0.00 | 0.00 | 0.00 | 67 | 1011.9 |
| 20260509005723 | 42 | 265 | 0.0 | 0.0 | 0.00 | 0.00 | 0.00 | 65 | 1011.7 |
| 20260509005220 | 43 | 261 | 0.0 | 0.0 | 0.00 | 0.00 | 0.00 | 64 | 1011.6 |
| 20260509004720 | 44 | 258 | 0.0 | 0.0 | 0.00 | 0.00 | 0.00 | 65 | 1011.5 |
| 20260509004218 | 44 | 260 | 0.0 | 0.0 | 0.00 | 0.00 | 0.00 | 63 | 1011.6 |
| 20260509003715 | 44 | 262 | 0.0 | 0.0 | 0.00 | 0.00 | 0.00 | 62 | 1011.4 |
| 20260509003213 | 45 | 264 | 0.0 | 0.0 | 0.00 | 0.00 | 0.00 | 61 | 1011.4 |
| 20260509002710 | 46 | 265 | 0.0 | 0.0 | 0.00 | 0.00 | 0.00 | 61 | 1011.5 |
| 20260509002208 | 47 | 265 | 0.0 | 0.9 | 0.00 | 0.00 | 0.00 | 59 | 1011.6 |
| 20260509001705 | 47 | 262 | 0.0 | 0.0 | 0.00 | 0.00 | 0.00 | 58 | 1011.5 |
| 20260509001200 | 48 | 264 | 0.0 | 0.0 | 0.00 | 0.00 | 0.00 | 58 | 1011.4 |
| 20260509000659 | 48 | 275 | 0.0 | 0.9 | 0.00 | 0.00 | 0.00 | 56 | 1011.5 |
| 20260509000156 | 48 | 276 | 0.9 | 0.9 | 0.00 | 0.00 | 0.00 | 53 | 1011.5 |
| 20260508235653 | 49 | 254 | 0.9 | 0.9 | 0.00 | 0.00 | 0.00 | 53 | 1011.4 |
| 20260508235149 | 49 | 261 | 0.0 | 0.9 | 0.00 | 0.00 | 0.00 | 52 | 1011.5 |
| 20260508234647 | 50 | 306 | 2.6 | 2.6 | 0.00 | 0.00 | 0.00 | 51 | 1011.4 |
| 20260508234143 | 50 | 248 | 0.9 | 1.7 | 0.00 | 0.00 | 0.00 | 50 | 1011.4 |
| 20260508233643 | 50 | 269 | 0.9 | 1.7 | 0.00 | 0.00 | 0.00 | 49 | 1011.3 |
| 20260508233140 | 50 | 276 | 3.5 | 5.2 | 0.00 | 0.00 | 0.00 | 48 | 1011.2 |
| 20260508232637 | 50 | 278 | 0.9 | 1.7 | 0.00 | 0.00 | 0.00 | 47 | 1011.2 |
| 20260508232133 | 51 | 269 | 4.3 | 4.3 | 0.00 | 0.00 | 0.00 | 45 | 1011.4 |
| 20260508231631 | 51 | 262 | 5.2 | 7.0 | 0.00 | 0.00 | 0.00 | 45 | 1011.3 |
| 20260508231128 | 51 | 329 | 4.3 | 7.0 | 0.00 | 0.00 | 0.00 | 44 | 1011.3 |
| 20260508230624 | 51 | 312 | 2.6 | 2.6 | 0.00 | 0.00 | 0.00 | 44 | 1011.2 |
| 20260508230121 | 52 | 239 | 2.6 | 2.6 | 0.00 | 0.00 | 0.00 | 45 | 1011.4 |
| 20260508225619 | 52 | 283 | 2.6 | 2.6 | 0.00 | 0.00 | 0.00 | 48 | 1011.3 |
| 20260508225115 | 52 | 266 | 2.6 | 2.6 | 0.00 | 0.00 | 0.00 | 48 | 1011.4 |
| 20260508224613 | 52 | 279 | 1.7 | 1.7 | 0.00 | 0.00 | 0.00 | 48 | 1011.4 |